createdAt,value
2022-11-05T00:00:06.398Z,8.60
2022-11-05T00:03:10.562Z,8.50
2022-11-05T00:06:14.804Z,8.50
2022-11-05T00:09:18.771Z,8.50
2022-11-05T00:12:30.869Z,8.50
2022-11-05T00:15:35.466Z,8.60
2022-11-05T00:18:21.059Z,8.60
2022-11-05T00:21:26.833Z,8.50
2022-11-05T00:24:30.704Z,8.40
2022-11-05T00:27:16.365Z,8.40
2022-11-05T00:30:01.980Z,8.40
2022-11-05T00:32:48.808Z,8.40
2022-11-05T00:35:34.729Z,8.40
2022-11-05T00:38:20.426Z,8.40
2022-11-05T00:41:05.977Z,8.40
2022-11-05T00:44:09.703Z,8.50
2022-11-05T00:47:15.368Z,8.40
2022-11-05T00:50:00.816Z,8.50
2022-11-05T00:52:57.616Z,8.40
2022-11-05T00:55:45.925Z,8.50
2022-11-05T00:58:31.471Z,8.50
2022-11-05T01:01:16.990Z,8.50
2022-11-05T01:04:02.320Z,8.50
2022-11-05T01:06:48.058Z,8.60
2022-11-05T01:09:34.000Z,8.60
2022-11-05T01:12:19.373Z,8.70
2022-11-05T01:15:05.475Z,8.70
2022-11-05T01:17:52.368Z,8.70
2022-11-05T01:20:38.164Z,8.70
2022-11-05T01:23:23.594Z,8.80
2022-11-05T01:26:09.023Z,8.80
2022-11-05T01:28:57.156Z,8.80
2022-11-05T01:31:42.771Z,8.80
2022-11-05T01:34:28.479Z,8.80
2022-11-05T01:37:13.815Z,8.80
2022-11-05T01:39:59.417Z,8.80
2022-11-05T01:42:44.760Z,8.80
2022-11-05T01:45:30.652Z,8.80
2022-11-05T01:48:26.993Z,8.80
2022-11-05T01:51:20.664Z,8.80
2022-11-05T01:54:09.782Z,8.90
2022-11-05T01:57:08.494Z,8.80
2022-11-05T01:59:57.872Z,8.80
2022-11-05T02:02:44.329Z,8.80
2022-11-05T02:05:30.736Z,8.80
2022-11-05T02:08:26.098Z,8.80
2022-11-05T02:11:14.306Z,8.80
2022-11-05T02:14:00.229Z,8.80
2022-11-05T02:17:17.315Z,8.70
2022-11-05T02:20:11.729Z,8.70
2022-11-05T02:23:12.559Z,8.70
2022-11-05T02:26:26.437Z,8.90
2022-11-05T02:29:39.612Z,8.90
2022-11-05T02:32:39.837Z,8.90
2022-11-05T02:35:51.931Z,9.00
2022-11-05T02:39:09.817Z,9.00
2022-11-05T02:42:20.035Z,9.00
2022-11-05T02:45:41.507Z,8.90
2022-11-05T02:48:50.194Z,8.90
2022-11-05T02:51:46.071Z,8.90
2022-11-05T02:54:39.803Z,8.80
2022-11-05T02:57:25.077Z,8.80
2022-11-05T03:00:38.498Z,8.90
2022-11-05T03:03:34.976Z,8.90
2022-11-05T03:06:54.612Z,8.90
2022-11-05T03:10:03.769Z,8.90
2022-11-05T03:13:13.426Z,8.90
2022-11-05T03:16:10.599Z,8.90
2022-11-05T03:19:10.793Z,8.90
2022-11-05T03:22:05.095Z,8.90
2022-11-05T03:24:58.138Z,8.90
2022-11-05T03:27:49.052Z,8.80
2022-11-05T03:30:37.308Z,8.80
2022-11-05T03:33:27.578Z,8.80
2022-11-05T03:36:23.411Z,8.80
2022-11-05T03:39:13.896Z,8.90
2022-11-05T03:42:01.105Z,8.90
2022-11-05T03:44:51.756Z,8.90
2022-11-05T03:47:40.912Z,8.90
2022-11-05T03:51:05.169Z,8.90
2022-11-05T03:53:55.654Z,8.80
2022-11-05T03:56:49.630Z,8.80
2022-11-05T03:59:44.102Z,8.80
2022-11-05T04:02:29.951Z,8.80
2022-11-05T04:05:15.612Z,8.80
2022-11-05T04:08:19.305Z,8.90
2022-11-05T04:11:23.190Z,8.90
2022-11-05T04:14:08.786Z,8.80
2022-11-05T04:17:14.949Z,8.90
2022-11-05T04:20:18.873Z,8.90
2022-11-05T04:23:25.337Z,8.90
2022-11-05T04:26:10.594Z,8.90
2022-11-05T04:29:14.525Z,8.90
2022-11-05T04:32:00.226Z,8.90
2022-11-05T04:34:45.791Z,8.90
2022-11-05T04:37:31.431Z,8.90
2022-11-05T04:40:17.139Z,8.80
2022-11-05T04:43:03.029Z,8.90
2022-11-05T04:45:48.475Z,8.80
2022-11-05T04:48:34.297Z,8.90
2022-11-05T04:51:19.803Z,8.90
2022-11-05T04:54:05.110Z,8.90
2022-11-05T04:56:50.544Z,8.90
2022-11-05T04:59:36.134Z,8.80
2022-11-05T05:02:21.852Z,8.80
2022-11-05T05:05:07.712Z,8.90
2022-11-05T05:07:53.043Z,8.80
2022-11-05T05:10:38.954Z,8.90
2022-11-05T05:13:24.275Z,9.00
2022-11-05T05:16:26.147Z,8.90
2022-11-05T05:19:11.510Z,8.90
2022-11-05T05:21:56.848Z,8.80
2022-11-05T05:24:42.659Z,8.80
2022-11-05T05:27:32.028Z,8.80
2022-11-05T05:30:17.771Z,8.80
2022-11-05T05:33:04.569Z,8.80
2022-11-05T05:35:50.350Z,8.80
2022-11-05T05:38:35.905Z,8.90
2022-11-05T05:41:21.894Z,8.90
2022-11-05T05:44:07.218Z,8.90
2022-11-05T05:46:55.234Z,8.90
2022-11-05T05:49:40.557Z,8.90
2022-11-05T05:52:26.265Z,8.90
2022-11-05T05:55:12.719Z,8.80
2022-11-05T05:57:58.065Z,8.90
2022-11-05T06:00:43.947Z,8.90
2022-11-05T06:03:29.836Z,8.80
2022-11-05T06:06:19.921Z,8.80
2022-11-05T06:09:05.558Z,8.80
2022-11-05T06:11:50.890Z,8.90
2022-11-05T06:14:36.397Z,8.80
2022-11-05T06:17:21.907Z,8.90
2022-11-05T06:20:08.833Z,8.90
2022-11-05T06:22:56.018Z,8.80
2022-11-05T06:25:41.662Z,8.90
2022-11-05T06:28:27.302Z,8.90
2022-11-05T06:31:14.376Z,9.00
2022-11-05T06:33:59.677Z,9.00
2022-11-05T06:36:45.063Z,8.90
2022-11-05T06:39:30.665Z,9.00
2022-11-05T06:42:18.754Z,9.00
2022-11-05T06:45:05.348Z,8.90
2022-11-05T06:47:59.169Z,8.90
2022-11-05T06:50:45.279Z,8.90
2022-11-05T06:53:31.236Z,8.90
2022-11-05T06:56:16.742Z,8.90
2022-11-05T06:59:02.315Z,8.90
2022-11-05T07:01:48.229Z,8.90
2022-11-05T07:04:34.045Z,8.80
2022-11-05T07:07:19.518Z,8.90
2022-11-05T07:10:06.502Z,8.90
2022-11-05T07:12:51.898Z,8.90
2022-11-05T07:15:37.353Z,9.00
2022-11-05T07:18:23.175Z,9.10
2022-11-05T07:21:08.761Z,9.00
2022-11-05T07:23:54.354Z,9.00
2022-11-05T07:26:40.173Z,9.00
2022-11-05T07:29:25.621Z,9.00
2022-11-05T07:32:10.988Z,9.00
2022-11-05T07:34:56.637Z,9.00
2022-11-05T07:37:44.135Z,9.10
2022-11-05T07:40:30.328Z,9.20
2022-11-05T07:43:16.265Z,9.20
2022-11-05T07:46:01.829Z,9.20
2022-11-05T07:48:47.361Z,9.20
2022-11-05T07:51:33.167Z,9.20
2022-11-05T07:54:18.497Z,9.20
2022-11-05T07:57:03.905Z,9.20
2022-11-05T07:59:49.456Z,9.20
2022-11-05T08:02:35.208Z,9.20
2022-11-05T08:05:20.830Z,9.20
2022-11-05T08:08:12.252Z,9.30
2022-11-05T08:11:05.342Z,9.30
2022-11-05T08:13:51.059Z,9.30
2022-11-05T08:16:36.327Z,9.20
2022-11-05T08:19:22.341Z,9.20
2022-11-05T08:22:07.756Z,9.30
2022-11-05T08:24:53.828Z,9.30
2022-11-05T08:27:40.506Z,9.40
2022-11-05T08:30:26.624Z,9.40
2022-11-05T08:33:14.521Z,9.60
2022-11-05T08:36:05.023Z,9.60
2022-11-05T08:38:52.641Z,9.60
2022-11-05T08:41:42.008Z,9.60
2022-11-05T08:44:27.582Z,9.60
2022-11-05T08:47:13.516Z,9.70
2022-11-05T08:50:00.060Z,9.70
2022-11-05T08:52:45.881Z,9.70
2022-11-05T08:55:31.835Z,9.70
2022-11-05T08:58:17.853Z,9.90
2022-11-05T09:01:05.828Z,9.90
2022-11-05T09:03:52.027Z,9.80
2022-11-05T09:06:37.577Z,9.70
2022-11-05T09:09:22.955Z,9.60
2022-11-05T09:12:13.009Z,9.50
2022-11-05T09:14:58.408Z,9.30
2022-11-05T09:17:47.060Z,9.30
2022-11-05T09:20:33.514Z,9.20
2022-11-05T09:23:22.223Z,9.20
2022-11-05T09:26:08.930Z,9.30
2022-11-05T09:28:54.534Z,9.30
2022-11-05T09:31:41.229Z,9.40
2022-11-05T09:34:27.067Z,9.50
2022-11-05T09:37:12.881Z,9.60
2022-11-05T09:39:58.233Z,9.60
2022-11-05T09:42:52.471Z,9.70
2022-11-05T09:45:38.020Z,9.70
2022-11-05T09:48:27.940Z,9.80
2022-11-05T09:51:20.845Z,9.80
2022-11-05T09:54:11.404Z,9.90
2022-11-05T09:56:57.786Z,10.10
2022-11-05T09:59:47.355Z,10.10
2022-11-05T10:02:43.664Z,10.20
2022-11-05T10:05:30.232Z,10.30
2022-11-05T10:08:23.414Z,10.40
2022-11-05T10:11:22.780Z,10.40
2022-11-05T10:14:17.193Z,10.50
2022-11-05T10:17:24.427Z,10.60
2022-11-05T10:20:23.405Z,10.60
2022-11-05T10:23:15.659Z,10.70
2022-11-05T10:26:05.877Z,10.80
2022-11-05T10:28:51.924Z,10.90
2022-11-05T10:31:38.078Z,11.10
2022-11-05T10:34:29.277Z,11.10
2022-11-05T10:37:14.996Z,11.00
2022-11-05T10:40:00.969Z,10.90
2022-11-05T10:43:04.541Z,11.00
2022-11-05T10:45:59.677Z,11.00
2022-11-05T10:49:02.344Z,11.00
2022-11-05T10:51:56.010Z,11.00
2022-11-05T10:54:41.838Z,11.00
2022-11-05T10:57:40.169Z,11.00
2022-11-05T11:00:28.405Z,11.10
2022-11-05T11:03:44.524Z,11.20
2022-11-05T11:06:32.823Z,11.30
2022-11-05T11:09:30.671Z,11.40
2022-11-05T11:12:23.375Z,11.40
2022-11-05T11:15:24.478Z,11.50
2022-11-05T11:18:38.861Z,11.60
2022-11-05T11:21:26.492Z,11.80
2022-11-05T11:24:23.466Z,11.90
2022-11-05T11:27:35.355Z,11.90
2022-11-05T11:30:21.804Z,11.80
2022-11-05T11:33:12.222Z,11.70
2022-11-05T11:35:58.448Z,11.70
2022-11-05T11:38:44.084Z,11.70
2022-11-05T11:41:39.558Z,11.80
2022-11-05T11:44:33.163Z,11.80
2022-11-05T11:47:21.564Z,11.70
2022-11-05T11:50:27.440Z,11.50
2022-11-05T11:53:20.543Z,11.50
2022-11-05T11:56:21.026Z,11.50
2022-11-05T11:59:17.819Z,11.40
2022-11-05T12:02:20.873Z,11.40
2022-11-05T12:05:18.449Z,11.20
2022-11-05T12:09:01.827Z,11.20
2022-11-05T12:12:32.631Z,11.00
2022-11-05T12:15:34.638Z,10.90
2022-11-05T12:18:37.956Z,10.90
2022-11-05T12:21:51.366Z,10.90
2022-11-05T12:24:45.992Z,10.90
2022-11-05T12:27:46.374Z,11.00
2022-11-05T12:30:47.785Z,11.00
2022-11-05T12:33:39.370Z,11.00
2022-11-05T12:36:36.844Z,11.00
2022-11-05T12:39:43.996Z,10.90
2022-11-05T12:42:35.427Z,11.00
2022-11-05T12:45:46.805Z,11.00
2022-11-05T12:49:09.736Z,11.10
2022-11-05T12:51:58.408Z,11.00
2022-11-05T12:54:59.622Z,11.10
2022-11-05T12:57:49.304Z,11.10
2022-11-05T13:00:37.239Z,11.10
2022-11-05T13:03:30.976Z,11.20
2022-11-05T13:06:29.925Z,11.20
2022-11-05T13:09:41.588Z,11.30
2022-11-05T13:12:31.301Z,11.30
2022-11-05T13:15:29.398Z,11.40
2022-11-05T13:18:20.329Z,11.40
2022-11-05T13:21:08.630Z,11.50
2022-11-05T13:24:05.628Z,11.50
2022-11-05T13:27:00.594Z,11.60
2022-11-05T13:29:51.850Z,11.70
2022-11-05T13:32:44.456Z,11.70
2022-11-05T13:35:36.947Z,11.80
2022-11-05T13:38:44.627Z,11.80
2022-11-05T13:41:45.648Z,11.70
2022-11-05T13:44:39.922Z,11.60
2022-11-05T13:47:36.831Z,11.50
2022-11-05T13:51:07.129Z,11.30
2022-11-05T13:54:18.280Z,11.30
2022-11-05T13:57:37.228Z,11.30
2022-11-05T14:00:28.453Z,11.20
2022-11-05T14:03:20.310Z,11.20
2022-11-05T14:06:08.117Z,11.10
2022-11-05T14:09:00.814Z,11.00
2022-11-05T14:11:53.845Z,11.00
2022-11-05T14:14:53.249Z,11.00
2022-11-05T14:18:01.406Z,10.90
2022-11-05T14:20:57.603Z,11.00
2022-11-05T14:23:50.894Z,11.00
2022-11-05T14:26:36.219Z,11.00
2022-11-05T14:29:24.415Z,11.00
2022-11-05T14:32:18.921Z,11.00
2022-11-05T14:35:35.462Z,10.90
2022-11-05T14:38:26.802Z,10.70
2022-11-05T14:41:12.433Z,10.80
2022-11-05T14:44:06.519Z,10.70
2022-11-05T14:46:56.130Z,10.80
2022-11-05T14:49:53.106Z,10.90
2022-11-05T14:52:41.006Z,10.80
2022-11-05T14:55:33.409Z,10.80
2022-11-05T14:58:31.521Z,10.70
2022-11-05T15:01:32.169Z,10.70
2022-11-05T15:04:29.684Z,10.60
2022-11-05T15:07:24.476Z,10.50
2022-11-05T15:10:14.319Z,10.50
2022-11-05T15:13:04.934Z,10.50
2022-11-05T15:15:51.699Z,10.40
2022-11-05T15:18:45.937Z,10.30
2022-11-05T15:21:36.358Z,10.30
2022-11-05T15:24:22.537Z,10.30
2022-11-05T15:27:13.718Z,10.30
2022-11-05T15:30:13.734Z,10.30
2022-11-05T15:33:10.704Z,10.20
2022-11-05T15:36:07.907Z,10.30
2022-11-05T15:39:23.030Z,10.30
2022-11-05T15:42:05.451Z,10.20
2022-11-05T15:44:53.950Z,10.20
2022-11-05T15:47:46.512Z,10.20
2022-11-05T15:50:33.493Z,10.10
2022-11-05T15:56:52.708Z,10.20
2022-11-05T15:59:38.249Z,10.20
2022-11-05T16:02:34.740Z,10.10
2022-11-05T16:05:21.186Z,10.00
2022-11-05T16:08:06.934Z,9.90
2022-11-05T16:10:59.001Z,9.80
2022-11-05T16:13:44.491Z,9.90
2022-11-05T16:16:34.354Z,9.90
2022-11-05T16:19:40.590Z,9.80
2022-11-05T16:22:26.564Z,9.70
2022-11-05T16:25:30.469Z,9.70
2022-11-05T16:28:24.421Z,9.60
2022-11-05T16:31:10.439Z,9.60
2022-11-05T16:33:57.512Z,9.60
2022-11-05T16:36:43.102Z,9.40
2022-11-05T16:39:28.601Z,9.20
2022-11-05T16:42:23.275Z,9.30
2022-11-05T16:45:13.684Z,9.20
2022-11-05T16:47:59.330Z,9.20
2022-11-05T16:50:46.048Z,9.10
2022-11-05T16:53:31.388Z,9.00
2022-11-05T16:56:21.967Z,8.80
2022-11-05T16:59:11.530Z,8.60
2022-11-05T17:01:58.525Z,8.40
2022-11-05T17:04:44.012Z,8.40
2022-11-05T17:07:29.453Z,8.30
2022-11-05T17:10:15.438Z,8.20
2022-11-05T17:13:01.164Z,8.10
2022-11-05T17:15:49.920Z,8.00
2022-11-05T17:18:35.296Z,8.00
2022-11-05T17:21:20.862Z,7.90
2022-11-05T17:24:07.425Z,7.80
2022-11-05T17:26:52.857Z,7.70
2022-11-05T17:29:38.509Z,7.80
2022-11-05T17:32:25.012Z,7.80
2022-11-05T17:35:10.748Z,7.80
2022-11-05T17:37:56.641Z,7.70
2022-11-05T17:40:41.821Z,7.80
2022-11-05T17:43:27.566Z,7.70
2022-11-05T17:46:16.585Z,7.60
2022-11-05T17:49:02.346Z,7.60
2022-11-05T17:51:47.801Z,7.50
2022-11-05T17:54:33.346Z,7.50
2022-11-05T17:57:19.130Z,7.30
2022-11-05T18:00:04.969Z,7.40
2022-11-05T18:02:53.234Z,7.30
2022-11-05T18:05:42.150Z,7.20
2022-11-05T18:08:27.874Z,7.10
2022-11-05T18:11:13.311Z,7.10
2022-11-05T18:13:59.058Z,7.20
2022-11-05T18:16:44.740Z,7.10
2022-11-05T18:19:30.323Z,7.20
2022-11-05T18:22:18.310Z,7.10
2022-11-05T18:25:05.178Z,7.10
2022-11-05T18:27:51.830Z,7.10
2022-11-05T18:30:39.122Z,7.10
2022-11-05T18:33:24.594Z,7.10
2022-11-05T18:36:21.346Z,7.20
2022-11-05T18:39:08.738Z,7.10
2022-11-05T18:41:54.295Z,7.00
2022-11-05T18:44:39.803Z,7.00
2022-11-05T18:47:25.405Z,6.90
2022-11-05T18:50:11.034Z,6.90
2022-11-05T18:52:57.195Z,6.90
2022-11-05T18:55:42.751Z,6.80
2022-11-05T18:58:28.001Z,6.80
2022-11-05T19:01:20.749Z,6.70
2022-11-05T19:04:06.394Z,6.60
2022-11-05T19:06:51.780Z,6.60
2022-11-05T19:09:39.275Z,6.50
2022-11-05T19:12:24.598Z,6.20
2022-11-05T19:15:10.497Z,6.20
2022-11-05T19:17:55.713Z,6.10
2022-11-05T19:20:41.530Z,6.00
2022-11-05T19:23:27.286Z,5.90
2022-11-05T19:26:15.817Z,5.90
2022-11-05T19:29:03.524Z,5.90
2022-11-05T19:31:48.784Z,5.80
2022-11-05T19:34:34.051Z,5.80
2022-11-05T19:37:20.157Z,5.70
2022-11-05T19:40:06.116Z,5.70
2022-11-05T19:42:51.504Z,5.70
2022-11-05T19:45:45.380Z,5.80
2022-11-05T19:48:31.503Z,5.80
2022-11-05T19:51:19.953Z,5.80
2022-11-05T19:54:07.001Z,5.70
2022-11-05T19:56:52.792Z,5.60
2022-11-05T19:59:38.353Z,5.70
2022-11-05T20:02:23.654Z,5.50
2022-11-05T20:05:09.281Z,5.50
2022-11-05T20:07:55.913Z,5.40
2022-11-05T20:10:41.503Z,5.40
2022-11-05T20:13:28.771Z,5.40
2022-11-05T20:16:38.106Z,5.30
2022-11-05T20:19:23.953Z,5.20
2022-11-05T20:22:09.689Z,5.20
2022-11-05T20:24:55.180Z,5.20
2022-11-05T20:27:40.873Z,5.20
2022-11-05T20:30:26.319Z,5.10
2022-11-05T20:33:12.180Z,5.10
2022-11-05T20:36:02.731Z,5.20
2022-11-05T20:38:53.392Z,5.10
2022-11-05T20:41:38.979Z,5.10
2022-11-05T20:44:24.649Z,5.10
2022-11-05T20:47:10.224Z,5.00
2022-11-05T20:49:57.322Z,5.10
2022-11-05T20:52:43.179Z,5.00
2022-11-05T20:55:28.524Z,5.10
2022-11-05T20:58:15.750Z,5.00
2022-11-05T21:01:01.062Z,4.90
2022-11-05T21:03:47.908Z,4.90
2022-11-05T21:06:34.996Z,4.90
2022-11-05T21:09:21.074Z,4.80
2022-11-05T21:12:12.473Z,4.80
2022-11-05T21:14:57.766Z,4.80
2022-11-05T21:17:44.922Z,4.70
2022-11-05T21:20:30.651Z,4.70
2022-11-05T21:23:16.918Z,4.60
2022-11-05T21:26:06.674Z,4.60
2022-11-05T21:28:52.468Z,4.60
2022-11-05T21:31:38.173Z,4.60
2022-11-05T21:34:23.823Z,4.70
2022-11-05T21:37:09.592Z,4.70
2022-11-05T21:39:54.945Z,4.70
2022-11-05T21:42:40.630Z,4.60
2022-11-05T21:45:26.145Z,4.80
2022-11-05T21:48:12.534Z,4.70
2022-11-05T21:51:16.753Z,4.70
2022-11-05T21:54:21.059Z,4.50
2022-11-05T21:57:32.030Z,4.50
2022-11-05T22:00:17.829Z,4.40
2022-11-05T22:03:03.525Z,4.30
2022-11-05T22:05:49.106Z,4.30
2022-11-05T22:08:34.502Z,4.20
2022-11-05T22:11:20.902Z,4.20
2022-11-05T22:14:06.519Z,4.20
2022-11-05T22:16:52.107Z,4.10
2022-11-05T22:19:37.852Z,4.10
2022-11-05T22:22:23.520Z,4.00
2022-11-05T22:25:09.433Z,4.00
2022-11-05T22:27:55.207Z,3.90
2022-11-05T22:30:40.558Z,3.90
2022-11-05T22:33:26.583Z,3.90
2022-11-05T22:36:12.145Z,3.80
2022-11-05T22:38:57.662Z,3.80
2022-11-05T22:41:44.238Z,3.70
2022-11-05T22:44:29.917Z,3.70
2022-11-05T22:47:16.017Z,3.70
2022-11-05T22:50:02.651Z,3.70
2022-11-05T22:52:48.193Z,3.70
2022-11-05T22:55:33.787Z,3.70
2022-11-05T22:58:19.400Z,3.60
2022-11-05T23:01:06.604Z,3.70
2022-11-05T23:03:53.972Z,3.60
2022-11-05T23:06:58.322Z,3.50
2022-11-05T23:10:02.747Z,3.50
2022-11-05T23:12:48.388Z,3.50
2022-11-05T23:15:52.247Z,3.50
2022-11-05T23:18:56.341Z,3.50
2022-11-05T23:22:00.355Z,3.50
2022-11-05T23:24:47.666Z,3.50
2022-11-05T23:27:34.858Z,3.50
2022-11-05T23:30:23.445Z,3.50
2022-11-05T23:33:09.056Z,3.60
2022-11-05T23:36:13.711Z,3.60
2022-11-05T23:38:59.365Z,3.60
2022-11-05T23:42:03.069Z,3.80
2022-11-05T23:45:11.607Z,3.80
2022-11-05T23:48:18.056Z,3.70
2022-11-05T23:51:07.274Z,3.60
2022-11-05T23:53:53.154Z,3.60
2022-11-05T23:56:38.812Z,3.50
2022-11-05T23:59:24.296Z,3.40
